Brandonville, West Virginia
Current Conditions -  °F | °C
As of 2:53 PM on Friday 31 Oct 2014 (Local Time) from KMGW Reporting Station
Overcast Overcast  
Wind Chill: 11°   Ceiling: 5000
Heat Index: 11°   Visibility: 10mi
Dew Point:   Wind: 3mph
Humidity: 50%   Direction: NA
Pressure: 29.86"   Gusts: NA
Location:  39.6431°N, 79.6244°W
Report Text: KMGW 311853Z VRB03KT 10SM OVC050 11/01 A2986 RMK AO2 SLP112 T01060006
Loading
Personal Weather Stations






























Interactive Weather Map
Tropical Storm Tracking
New forecast layout! Learn more

10-Day Weather Forecast

Advertisements
Track Severe Weather on mobile